Time;durP1;ratioP1;P1;durP2;ratioP2;P2;SDS_P1;SDS_P2;PMS_P1;PMS_P2;Temp;Humidity;BMP_temperature;BMP_pressure;BME280_temperature;BME280_humidity;BME280_pressure;Samples;Min_cycle;Max_cycle;Signal;HPM_P1;HPM_P2
2021/03/25 00:01:48;;;;;;;;;;;;;;;;;;5068076;28;20256;-69
2021/03/25 00:04:13;;;;;;;;;;;;;;;;;;5056205;28;20268;-69
2021/03/25 00:06:38;;;;;;;;;;;;;;;;;;5049444;28;19909;-68
2021/03/25 00:09:03;;;;;;;;;;;;;;;;;;5052697;28;19962;-68
2021/03/25 00:11:28;;;;;;;;;;;;;;;;;;5053970;28;19969;-69
2021/03/25 00:13:54;;;;;;;;;;;;;;;;;;5054338;28;19990;-68
2021/03/25 00:16:19;;;;;;;;;;;;;;;;;;5062316;28;19971;-70
2021/03/25 00:18:44;;;;;;;;;;;;;;;;;;5069997;28;19966;-68
2021/03/25 00:21:09;;;;;;;;;;;;;;;;;;5060935;28;19909;-68
2021/03/25 00:23:34;;;;;;;;;;;;;;;;;;5053720;28;20295;-68
2021/03/25 00:26:00;;;;;;;;;;;;;;;;;;5081923;28;20485;-68
2021/03/25 00:28:25;;;;;;;;;;;;;;;;;;5067624;28;20375;-68
2021/03/25 00:30:50;;;;;;;;;;;;;;;;;;5070444;28;19955;-68
2021/03/25 00:33:15;;;;;;;;;;;;;;;;;;5060375;28;20011;-68
2021/03/25 00:35:40;;;;;;;;;;;;;;;;;;5058806;28;20004;-69
2021/03/25 00:38:05;;;;;;;;;;;;;;;;;;5054929;28;20007;-69
2021/03/25 00:40:30;;;;;;;;;;;;;;;;;;5050802;28;20330;-68
2021/03/25 00:42:55;;;;;;;;;;;;;;;;;;5062624;28;20326;-69
2021/03/25 00:45:20;;;;;;;;;;;;;;;;;;5061007;28;20364;-69
2021/03/25 00:47:46;;;;;;;;;;;;;;;;;;5061488;28;20337;-68
2021/03/25 00:50:11;;;;;;;;;;;;;;;;;;5062304;28;20321;-69
2021/03/25 00:52:36;;;;;;;;;;;;;;;;;;5061909;28;20371;-67
2021/03/25 00:55:01;;;;;;;;;;;;;;;;;;5063728;28;20420;-68
2021/03/25 00:57:26;;;;;;;;;;;;;;;;;;5061284;28;19935;-68
2021/03/25 00:59:52;;;;;;;;;;;;;;;;;;5061450;28;19913;-69
2021/03/25 01:02:17;;;;;;;;;;;;;;;;;;5057017;28;19912;-68
2021/03/25 01:04:42;;;;;;;;;;;;;;;;;;5064358;28;20054;-69
2021/03/25 01:07:07;;;;;;;;;;;;;;;;;;5053696;28;19952;-69
2021/03/25 01:09:32;;;;;;;;;;;;;;;;;;5064732;28;20002;-69
2021/03/25 01:11:58;;;;;;;;;;;;;;;;;;5055627;28;20007;-69
2021/03/25 01:14:23;;;;;;;;;;;;;;;;;;5069452;28;19951;-68
2021/03/25 01:16:48;;;;;;;;;;;;;;;;;;5057793;28;19913;-68
2021/03/25 01:19:13;;;;;;;;;;;;;;;;;;5058789;28;19917;-68
2021/03/25 01:21:38;;;;;;;;;;;;;;;;;;5065422;28;19912;-68
2021/03/25 01:24:04;;;;;;;;;;;;;;;;;;5063614;28;20348;-68
2021/03/25 01:26:29;;;;;;;;;;;;;;;;;;5061127;28;19924;-68
2021/03/25 01:28:54;;;;;;;;;;;;;;;;;;5059500;28;19913;-68
2021/03/25 01:31:19;;;;;;;;;;;;;;;;;;5053713;28;19916;-69
2021/03/25 01:33:44;;;;;;;;;;;;;;;;;;5059788;28;19971;-67
2021/03/25 01:36:09;;;;;;;;;;;;;;;;;;5060967;28;19912;-69
2021/03/25 01:38:34;;;;;;;;;;;;;;;;;;5057481;28;19917;-69
2021/03/25 01:40:59;;;;;;;;;;;;;;;;;;5070080;28;19917;-68
2021/03/25 01:43:25;;;;;;;;;;;;;;;;;;5053404;28;20023;-68
2021/03/25 01:45:50;;;;;;;;;;;;;;;;;;5058802;28;19921;-69
2021/03/25 01:48:15;;;;;;;;;;;;;;;;;;5061700;28;20356;-68
2021/03/25 01:50:40;;;;;;;;;;;;;;;;;;5063325;28;19913;-68
2021/03/25 01:53:05;;;;;;;;;;;;;;;;;;5066985;28;19920;-68
2021/03/25 01:55:30;;;;;;;;;;;;;;;;;;5055058;28;19994;-69
2021/03/25 01:57:55;;;;;;;;;;;;;;;;;;5066857;28;20279;-68
2021/03/25 02:00:20;;;;;;;;;;;;;;;;;;5062910;28;20265;-68
2021/03/25 02:02:46;;;;;;;;;;;;;;;;;;5057649;28;20011;-67
2021/03/25 02:05:11;;;;;;;;;;;;;;;;;;5071431;28;20014;-69
2021/03/25 02:07:36;;;;;;;;;;;;;;;;;;5056089;28;19967;-68
2021/03/25 02:10:01;;;;;;;;;;;;;;;;;;5071577;28;20348;-69
2021/03/25 02:12:26;;;;;;;;;;;;;;;;;;5057799;28;19962;-68
2021/03/25 02:14:51;;;;;;;;;;;;;;;;;;5069569;28;19915;-68
2021/03/25 02:17:16;;;;;;;;;;;;;;;;;;5068381;28;19919;-68
2021/03/25 02:19:41;;;;;;;;;;;;;;;;;;5061934;28;19913;-69
2021/03/25 02:22:07;;;;;;;;;;;;;;;;;;5059923;28;19913;-69
2021/03/25 02:24:32;;;;;;;;;;;;;;;;;;5054501;28;19909;-69
2021/03/25 02:26:57;;;;;;;;;;;;;;;;;;5056982;28;19917;-69
2021/03/25 02:29:22;;;;;;;;;;;;;;;;;;5055106;28;19913;-69
2021/03/25 02:31:47;;;;;;;;;;;;;;;;;;5070475;28;19965;-67
2021/03/25 02:34:12;;;;;;;;;;;;;;;;;;5072559;28;20313;-68
2021/03/25 02:36:37;;;;;;;;;;;;;;;;;;5058532;28;19926;-68
2021/03/25 02:39:02;;;;;;;;;;;;;;;;;;5060484;28;19920;-68
2021/03/25 02:41:29;;;;;;;;;;;;;;;;;;5069920;28;20163;-69
2021/03/25 02:43:54;;;;;;;;;;;;;;;;;;5068794;28;19912;-69
2021/03/25 02:46:19;;;;;;;;;;;;;;;;;;5055659;28;19913;-68
2021/03/25 02:48:44;;;;;;;;;;;;;;;;;;5065044;28;19916;-67
2021/03/25 02:51:09;;;;;;;;;;;;;;;;;;5063193;28;19913;-69
2021/03/25 02:53:34;;;;;;;;;;;;;;;;;;5073671;28;19958;-69
2021/03/25 02:55:59;;;;;;;;;;;;;;;;;;5060054;28;19913;-69
2021/03/25 02:58:25;;;;;;;;;;;;;;;;;;5059303;28;19913;-68
2021/03/25 03:00:50;;;;;;;;;;;;;;;;;;5058492;28;19917;-69
2021/03/25 03:03:15;;;;;;;;;;;;;;;;;;5071661;28;19913;-68
2021/03/25 03:05:40;;;;;;;;;;;;;;;;;;5063637;28;19924;-69
2021/03/25 03:08:05;;;;;;;;;;;;;;;;;;5069813;28;19920;-69
2021/03/25 03:10:30;;;;;;;;;;;;;;;;;;5066414;28;19913;-68
2021/03/25 03:12:56;;;;;;;;;;;;;;;;;;5072395;28;19909;-68
2021/03/25 03:15:21;;;;;;;;;;;;;;;;;;5061393;28;19913;-69
2021/03/25 03:17:46;;;;;;;;;;;;;;;;;;5066971;28;19912;-68
2021/03/25 03:20:11;;;;;;;;;;;;;;;;;;5059043;28;20272;-68
2021/03/25 03:22:36;;;;;;;;;;;;;;;;;;5063286;28;20390;-68
2021/03/25 03:25:01;;;;;;;;;;;;;;;;;;5055733;28;19917;-68
2021/03/25 03:27:26;;;;;;;;;;;;;;;;;;5056102;28;19912;-68
2021/03/25 03:29:51;;;;;;;;;;;;;;;;;;5054561;28;20005;-68
2021/03/25 03:32:16;;;;;;;;;;;;;;;;;;5072525;28;20011;-68
2021/03/25 03:34:41;;;;;;;;;;;;;;;;;;5072106;28;19918;-70
2021/03/25 03:37:07;;;;;;;;;;;;;;;;;;5055699;28;19934;-68
2021/03/25 03:39:32;;;;;;;;;;;;;;;;;;5051379;28;20375;-67
2021/03/25 03:41:57;;;;;;;;;;;;;;;;;;5060417;28;20375;-67
2021/03/25 03:44:22;;;;;;;;;;;;;;;;;;5059403;28;19919;-67
2021/03/25 03:46:47;;;;;;;;;;;;;;;;;;5076429;28;20015;-67
2021/03/25 03:49:12;;;;;;;;;;;;;;;;;;5051750;28;19912;-69
2021/03/25 03:51:37;;;;;;;;;;;;;;;;;;5070850;28;19917;-69
2021/03/25 03:54:02;;;;;;;;;;;;;;;;;;5069706;28;19999;-68
2021/03/25 03:56:28;;;;;;;;;;;;;;;;;;5051329;28;19947;-68
2021/03/25 03:58:53;;;;;;;;;;;;;;;;;;5065377;28;20014;-68
2021/03/25 04:01:18;;;;;;;;;;;;;;;;;;5070314;28;20363;-68
2021/03/25 04:03:43;;;;;;;;;;;;;;;;;;5073267;28;19909;-69
2021/03/25 04:06:08;;;;;;;;;;;;;;;;;;5060446;28;19913;-68
2021/03/25 04:08:33;;;;;;;;;;;;;;;;;;5053432;28;20000;-68
2021/03/25 04:10:58;;;;;;;;;;;;;;;;;;5069781;28;20011;-68
2021/03/25 04:13:24;;;;;;;;;;;;;;;;;;5056414;28;19934;-68
2021/03/25 04:15:49;;;;;;;;;;;;;;;;;;5062458;28;19912;-68
2021/03/25 04:18:14;;;;;;;;;;;;;;;;;;5053733;28;19913;-69
2021/03/25 04:20:39;;;;;;;;;;;;;;;;;;5058163;28;19925;-68
2021/03/25 04:23:04;;;;;;;;;;;;;;;;;;5052875;28;20387;-68
2021/03/25 04:25:29;;;;;;;;;;;;;;;;;;5057946;28;19916;-67
2021/03/25 04:27:54;;;;;;;;;;;;;;;;;;5058619;28;19913;-67
2021/03/25 04:30:19;;;;;;;;;;;;;;;;;;5059669;28;19912;-68
2021/03/25 04:32:44;;;;;;;;;;;;;;;;;;5058695;28;20058;-66
2021/03/25 04:35:10;;;;;;;;;;;;;;;;;;5072299;28;20004;-66
2021/03/25 04:37:35;;;;;;;;;;;;;;;;;;5060831;28;19916;-68
2021/03/25 04:40:01;;;;;;;;;;;;;;;;;;5068320;28;19917;-68
2021/03/25 04:42:26;;;;;;;;;;;;;;;;;;5063727;28;19919;-68
2021/03/25 04:44:51;;;;;;;;;;;;;;;;;;5062384;28;20380;-68
2021/03/25 04:47:16;;;;;;;;;;;;;;;;;;5058805;28;20389;-68
2021/03/25 04:49:41;;;;;;;;;;;;;;;;;;5069450;28;19995;-68
2021/03/25 04:52:08;;;;;;;;;;;;;;;;;;5054697;28;19912;-68
2021/03/25 04:54:33;;;;;;;;;;;;;;;;;;5057939;28;19958;-68
2021/03/25 04:56:59;;;;;;;;;;;;;;;;;;5058086;28;19924;-68
2021/03/25 04:59:24;;;;;;;;;;;;;;;;;;5067373;28;20359;-68
2021/03/25 05:01:49;;;;;;;;;;;;;;;;;;5068291;28;20276;-68
2021/03/25 05:04:14;;;;;;;;;;;;;;;;;;5071620;28;20342;-68
2021/03/25 05:06:39;;;;;;;;;;;;;;;;;;5064273;28;20363;-68
2021/03/25 05:09:04;;;;;;;;;;;;;;;;;;5074112;28;20530;-69
2021/03/25 05:11:29;;;;;;;;;;;;;;;;;;5058886;28;20406;-67
2021/03/25 05:13:54;;;;;;;;;;;;;;;;;;5068185;28;19909;-68
2021/03/25 05:16:19;;;;;;;;;;;;;;;;;;5069726;28;19919;-68
2021/03/25 05:18:44;;;;;;;;;;;;;;;;;;5059084;28;19936;-68
2021/03/25 05:21:10;;;;;;;;;;;;;;;;;;5069634;28;19916;-68
2021/03/25 05:23:35;;;;;;;;;;;;;;;;;;5074791;28;19920;-68
2021/03/25 05:26:00;;;;;;;;;;;;;;;;;;5055322;28;19964;-67
2021/03/25 05:28:25;;;;;;;;;;;;;;;;;;5060001;28;19989;-68
2021/03/25 05:30:50;;;;;;;;;;;;;;;;;;5066954;28;19971;-68
2021/03/25 05:33:15;;;;;;;;;;;;;;;;;;5064978;28;20018;-67
2021/03/25 05:35:40;;;;;;;;;;;;;;;;;;5070725;28;19920;-68
2021/03/25 05:38:05;;;;;;;;;;;;;;;;;;5057934;28;19959;-68
2021/03/25 05:40:32;;;;;;;;;;;;;;;;;;5053556;28;20000;-67
2021/03/25 05:42:57;;;;;;;;;;;;;;;;;;5056605;28;19913;-68
2021/03/25 05:45:22;;;;;;;;;;;;;;;;;;5061482;28;20430;-67
2021/03/25 05:47:47;;;;;;;;;;;;;;;;;;5060518;28;19912;-67
2021/03/25 05:50:12;;;;;;;;;;;;;;;;;;5063671;28;19917;-67
2021/03/25 05:52:38;;;;;;;;;;;;;;;;;;5061120;28;19913;-65
2021/03/25 05:55:03;;;;;;;;;;;;;;;;;;5056877;28;20387;-65
2021/03/25 05:57:28;;;;;;;;;;;;;;;;;;5045246;28;19913;-66
2021/03/25 05:59:53;;;;;;;;;;;;;;;;;;5046777;28;19928;-66
2021/03/25 06:02:19;;;;;;;;;;;;;;;;;;5072104;28;19913;-66
2021/03/25 06:04:45;;;;;;;;;;;;;;;;;;5066876;28;19913;-67
2021/03/25 06:07:10;;;;;;;;;;;;;;;;;;5083289;28;19936;-67
2021/03/25 06:09:35;;;;;;;;;;;;;;;;;;5082064;28;19913;-68
2021/03/25 06:12:00;;;;;;;;;;;;;;;;;;5038937;28;19959;-68
2021/03/25 06:14:25;;;;;;;;;;;;;;;;;;5069819;28;19919;-68
2021/03/25 06:16:50;;;;;;;;;;;;;;;;;;5041037;28;19917;-67
2021/03/25 06:19:15;;;;;;;;;;;;;;;;;;5055852;28;19916;-68
2021/03/25 06:21:40;;;;;;;;;;;;;;;;;;5054584;28;19912;-68
2021/03/25 06:24:05;;;;;;;;;;;;;;;;;;5050807;28;19917;-68
2021/03/25 06:26:31;;;;;;;;;;;;;;;;;;5049841;28;19913;-66
2021/03/25 06:29:02;;;;;;;;;;;;;;;;;;5036755;28;19960;-67
2021/03/25 06:31:27;;;;;;;;;;;;;;;;;;5066479;28;19928;-68
2021/03/25 06:33:52;;;;;;;;;;;;;;;;;;5044053;28;19920;-68
2021/03/25 06:36:17;;;;;;;;;;;;;;;;;;5081359;28;20366;-68
2021/03/25 06:38:42;;;;;;;;;;;;;;;;;;5042608;28;20386;-69
2021/03/25 06:41:07;;;;;;;;;;;;;;;;;;5085832;28;20371;-68
2021/03/25 06:43:32;;;;;;;;;;;;;;;;;;5053210;28;19912;-69
2021/03/25 06:45:58;;;;;;;;;;;;;;;;;;5077945;28;19920;-68
2021/03/25 06:48:23;;;;;;;;;;;;;;;;;;5053300;28;19916;-68
2021/03/25 06:50:49;;;;;;;;;;;;;;;;;;5045479;28;19924;-68
2021/03/25 06:53:15;;;;;;;;;;;;;;;;;;5057460;28;19935;-68
2021/03/25 06:55:40;;;;;;;;;;;;;;;;;;5051712;28;19912;-70
2021/03/25 06:58:05;;;;;;;;;;;;;;;;;;5052420;28;19913;-69
2021/03/25 07:00:30;;;;;;;;;;;;;;;;;;5039047;28;20066;-69
2021/03/25 07:02:55;;;;;;;;;;;;;;;;;;5034006;28;19913;-69
2021/03/25 07:05:20;;;;;;;;;;;;;;;;;;5034861;28;19909;-69
2021/03/25 07:07:45;;;;;;;;;;;;;;;;;;5043347;28;20352;-68
2021/03/25 07:10:10;;;;;;;;;;;;;;;;;;5084550;28;19916;-68
2021/03/25 07:12:35;;;;;;;;;;;;;;;;;;5051017;28;20003;-68
2021/03/25 07:15:01;;;;;;;;;;;;;;;;;;5049912;28;20008;-69
2021/03/25 07:17:26;;;;;;;;;;;;;;;;;;5062983;28;19995;-69
2021/03/25 07:19:51;;;;;;;;;;;;;;;;;;5059741;28;19994;-68
2021/03/25 07:22:16;;;;;;;;;;;;;;;;;;5047527;28;19948;-68
2021/03/25 07:24:41;;;;;;;;;;;;;;;;;;5073163;28;20340;-68
2021/03/25 07:27:06;;;;;;;;;;;;;;;;;;5032589;28;19909;-68
2021/03/25 07:29:33;;;;;;;;;;;;;;;;;;5078486;28;19913;-68
2021/03/25 07:31:58;;;;;;;;;;;;;;;;;;5046763;28;20387;-68
2021/03/25 07:34:23;;;;;;;;;;;;;;;;;;5053051;28;19939;-68
2021/03/25 07:36:48;;;;;;;;;;;;;;;;;;5050495;28;19920;-68
2021/03/25 07:39:14;;;;;;;;;;;;;;;;;;5035297;28;19925;-69
2021/03/25 07:41:39;;;;;;;;;;;;;;;;;;5049313;28;19916;-69
2021/03/25 07:44:04;;;;;;;;;;;;;;;;;;5039121;28;19909;-69
2021/03/25 07:46:29;;;;;;;;;;;;;;;;;;5065245;28;19917;-69
2021/03/25 07:48:54;;;;;;;;;;;;;;;;;;5065254;28;19909;-69
2021/03/25 07:51:19;;;;;;;;;;;;;;;;;;5081809;28;19920;-68
2021/03/25 07:53:46;;;;;;;;;;;;;;;;;;5071651;28;19919;-68
2021/03/25 07:56:11;;;;;;;;;;;;;;;;;;5053662;28;20284;-68
2021/03/25 07:58:36;;;;;;;;;;;;;;;;;;5041622;28;19913;-68
2021/03/25 08:01:02;;;;;;;;;;;;;;;;;;5032489;28;19913;-69
2021/03/25 08:03:27;;;;;;;;;;;;;;;;;;5064982;28;19964;-70
2021/03/25 08:05:52;;;;;;;;;;;;;;;;;;5042367;28;19982;-69
2021/03/25 08:08:17;;;;;;;;;;;;;;;;;;5052795;28;19967;-69
2021/03/25 08:10:42;;;;;;;;;;;;;;;;;;5057018;28;19916;-69
2021/03/25 08:13:07;;;;;;;;;;;;;;;;;;5054219;28;19917;-69
2021/03/25 08:15:33;;;;;;;;;;;;;;;;;;5074628;28;19913;-68
2021/03/25 08:17:58;;;;;;;;;;;;;;;;;;5070733;28;19967;-69
2021/03/25 08:20:23;;;;;;;;;;;;;;;;;;5044297;28;19923;-67
2021/03/25 08:22:48;;;;;;;;;;;;;;;;;;5094469;28;20012;-69
2021/03/25 08:25:13;;;;;;;;;;;;;;;;;;5045073;28;20295;-69
2021/03/25 08:27:38;;;;;;;;;;;;;;;;;;5066669;28;19924;-68
2021/03/25 08:30:04;;;;;;;;;;;;;;;;;;5055080;28;19913;-70
2021/03/25 08:32:29;;;;;;;;;;;;;;;;;;5052111;28;20287;-67
2021/03/25 08:34:54;;;;;;;;;;;;;;;;;;5052974;28;20371;-69
2021/03/25 08:37:19;;;;;;;;;;;;;;;;;;5040654;28;19920;-68
2021/03/25 08:39:44;;;;;;;;;;;;;;;;;;5054608;28;20015;-68
2021/03/25 08:42:09;;;;;;;;;;;;;;;;;;5054717;28;19913;-68
2021/03/25 08:44:34;;;;;;;;;;;;;;;;;;5053760;28;19923;-69
2021/03/25 08:46:59;;;;;;;;;;;;;;;;;;5077810;28;20375;-68
2021/03/25 08:49:25;;;;;;;;;;;;;;;;;;5053445;28;19913;-67
2021/03/25 08:51:50;;;;;;;;;;;;;;;;;;5041856;28;19913;-69
2021/03/25 08:54:15;;;;;;;;;;;;;;;;;;5038797;28;19940;-69
2021/03/25 08:56:40;;;;;;;;;;;;;;;;;;5052755;28;19913;-69
2021/03/25 08:59:05;;;;;;;;;;;;;;;;;;5060304;28;19982;-68
2021/03/25 09:01:30;;;;;;;;;;;;;;;;;;5049789;28;19913;-69
2021/03/25 09:03:56;;;;;;;;;;;;;;;;;;5039950;28;19936;-68
2021/03/25 09:06:21;;;;;;;;;;;;;;;;;;5033438;28;19913;-68
2021/03/25 09:08:46;;;;;;;;;;;;;;;;;;5036615;28;19952;-68
2021/03/25 09:11:11;;;;;;;;;;;;;;;;;;5075302;28;19920;-68
2021/03/25 09:13:36;;;;;;;;;;;;;;;;;;5064120;28;19912;-69
2021/03/25 09:16:01;;;;;;;;;;;;;;;;;;5064633;28;19913;-69
2021/03/25 09:18:27;;;;;;;;;;;;;;;;;;5051863;28;19909;-68
2021/03/25 09:20:52;;;;;;;;;;;;;;;;;;5085984;28;19932;-68
2021/03/25 09:23:17;;;;;;;;;;;;;;;;;;5054365;28;20342;-68
2021/03/25 09:25:42;;;;;;;;;;;;;;;;;;5060288;28;20617;-68
2021/03/25 09:28:07;;;;;;;;;;;;;;;;;;5055481;28;19958;-68
2021/03/25 09:30:32;;;;;;;;;;;;;;;;;;5041332;28;19913;-69
2021/03/25 09:32:57;;;;;;;;;;;;;;;;;;5035602;28;19921;-69
2021/03/25 09:35:22;;;;;;;;;;;;;;;;;;5040181;28;20000;-69
2021/03/25 09:37:47;;;;;;;;;;;;;;;;;;5073772;28;20388;-68
2021/03/25 09:40:13;;;;;;;;;;;;;;;;;;5043270;28;20457;-69
2021/03/25 09:42:38;;;;;;;;;;;;;;;;;;5082031;28;19917;-68
2021/03/25 09:45:03;;;;;;;;;;;;;;;;;;5069626;28;19966;-69
2021/03/25 09:47:28;;;;;;;;;;;;;;;;;;5034829;28;19913;-68
2021/03/25 09:49:54;;;;;;;;;;;;;;;;;;5050310;28;20287;-69
2021/03/25 09:52:19;;;;;;;;;;;;;;;;;;5050743;28;20387;-67
2021/03/25 09:54:44;;;;;;;;;;;;;;;;;;5051286;28;19913;-69
2021/03/25 09:57:09;;;;;;;;;;;;;;;;;;5048061;28;19944;-70
2021/03/25 09:59:34;;;;;;;;;;;;;;;;;;5042257;28;19971;-68
2021/03/25 10:01:59;;;;;;;;;;;;;;;;;;5073716;28;19955;-69
2021/03/25 10:04:25;;;;;;;;;;;;;;;;;;5071654;28;19940;-69
2021/03/25 10:06:51;;;;;;;;;;;;;;;;;;5063697;28;19916;-69
2021/03/25 10:09:16;;;;;;;;;;;;;;;;;;5045792;28;19909;-68
2021/03/25 10:11:41;;;;;;;;;;;;;;;;;;5042964;28;19913;-69
2021/03/25 10:14:06;;;;;;;;;;;;;;;;;;5061043;28;19915;-69
2021/03/25 10:16:31;;;;;;;;;;;;;;;;;;5064916;28;19913;-69
2021/03/25 10:18:56;;;;;;;;;;;;;;;;;;5055308;28;20004;-69
2021/03/25 10:21:21;;;;;;;;;;;;;;;;;;5088503;28;19960;-69
2021/03/25 10:23:46;;;;;;;;;;;;;;;;;;5073160;28;19966;-69
2021/03/25 10:26:12;;;;;;;;;;;;;;;;;;5050658;28;20007;-69
2021/03/25 10:28:37;;;;;;;;;;;;;;;;;;5049577;28;19996;-69
2021/03/25 10:31:02;;;;;;;;;;;;;;;;;;5047775;28;19913;-70
2021/03/25 10:33:27;;;;;;;;;;;;;;;;;;5047461;28;19974;-68
2021/03/25 10:35:52;;;;;;;;;;;;;;;;;;5072895;28;19913;-67
2021/03/25 10:38:17;;;;;;;;;;;;;;;;;;5035899;28;20378;-67
2021/03/25 10:40:44;;;;;;;;;;;;;;;;;;5049572;28;19955;-66
2021/03/25 10:43:10;;;;;;;;;;;;;;;;;;5045213;28;19948;-66
2021/03/25 10:45:36;;;;;;;;;;;;;;;;;;5048196;28;20203;-67
2021/03/25 10:48:01;;;;;;;;;;;;;;;;;;5051686;28;19912;-68
2021/03/25 10:50:26;;;;;;;;;;;;;;;;;;5034775;28;20321;-68
2021/03/25 10:52:52;;;;;;;;;;;;;;;;;;5081457;28;20290;-68
2021/03/25 10:55:17;;;;;;;;;;;;;;;;;;5073469;28;20274;-66
2021/03/25 10:57:42;;;;;;;;;;;;;;;;;;5054381;28;20003;-68
2021/03/25 11:00:07;;;;;;;;;;;;;;;;;;5043923;28;20014;-67
2021/03/25 11:02:32;;;;;;;;;;;;;;;;;;5046448;28;19944;-68
2021/03/25 11:04:57;;;;;;;;;;;;;;;;;;5079143;28;19952;-69
2021/03/25 11:07:24;;;;;;;;;;;;;;;;;;5032067;28;19913;-67
2021/03/25 11:09:49;;;;;;;;;;;;;;;;;;5077916;28;19912;-67
2021/03/25 11:12:14;;;;;;;;;;;;;;;;;;5076610;28;19974;-67
2021/03/25 11:14:44;;;;;;;;;;;;;;;;;;5060287;28;19920;-66
2021/03/25 11:17:09;;;;;;;;;;;;;;;;;;5047928;28;19955;-67
2021/03/25 11:19:34;;;;;;;;;;;;;;;;;;5054254;28;19944;-67
2021/03/25 11:21:59;;;;;;;;;;;;;;;;;;5071344;28;19920;-68
2021/03/25 11:24:24;;;;;;;;;;;;;;;;;;5085622;28;19909;-67
2021/03/25 11:26:49;;;;;;;;;;;;;;;;;;5050235;28;20288;-69
2021/03/25 11:29:15;;;;;;;;;;;;;;;;;;5069775;28;19935;-68
2021/03/25 11:31:40;;;;;;;;;;;;;;;;;;5087913;28;19955;-68
2021/03/25 11:34:05;;;;;;;;;;;;;;;;;;5077919;28;19919;-68
2021/03/25 11:36:30;;;;;;;;;;;;;;;;;;5045686;28;19912;-69
2021/03/25 11:38:55;;;;;;;;;;;;;;;;;;5052915;28;19963;-68
2021/03/25 11:41:20;;;;;;;;;;;;;;;;;;5051103;28;19917;-68
2021/03/25 11:43:46;;;;;;;;;;;;;;;;;;5077803;28;19931;-68
2021/03/25 11:46:11;;;;;;;;;;;;;;;;;;5081133;28;20368;-68
2021/03/25 11:48:36;;;;;;;;;;;;;;;;;;5034249;28;19913;-70
2021/03/25 11:51:01;;;;;;;;;;;;;;;;;;5041791;28;19966;-69
2021/03/25 11:53:26;;;;;;;;;;;;;;;;;;5052350;28;19913;-68
2021/03/25 11:55:51;;;;;;;;;;;;;;;;;;5042535;28;19920;-68
2021/03/25 11:58:17;;;;;;;;;;;;;;;;;;5039210;28;20309;-69
2021/03/25 12:00:42;;;;;;;;;;;;;;;;;;5066092;28;19917;-67
2021/03/25 12:03:07;;;;;;;;;;;;;;;;;;5036524;28;19920;-69
2021/03/25 12:05:32;;;;;;;;;;;;;;;;;;5030503;28;19920;-67
2021/03/25 12:07:57;;;;;;;;;;;;;;;;;;5039695;28;19913;-68
2021/03/25 12:10:23;;;;;;;;;;;;;;;;;;5052448;28;19909;-67
2021/03/25 12:12:48;;;;;;;;;;;;;;;;;;5082401;28;20381;-68
2021/03/25 12:15:13;;;;;;;;;;;;;;;;;;5055069;28;20046;-69
2021/03/25 12:17:38;;;;;;;;;;;;;;;;;;5041363;28;19913;-69
2021/03/25 12:20:03;;;;;;;;;;;;;;;;;;5084107;28;20376;-70
2021/03/25 12:22:28;;;;;;;;;;;;;;;;;;5044735;28;19924;-70
2021/03/25 12:24:53;;;;;;;;;;;;;;;;;;5070564;28;19917;-69
2021/03/25 12:27:19;;;;;;;;;;;;;;;;;;5049364;28;19909;-68
2021/03/25 12:29:44;;;;;;;;;;;;;;;;;;5080964;28;19999;-69
2021/03/25 12:32:09;;;;;;;;;;;;;;;;;;5042953;28;19930;-69
2021/03/25 12:34:34;;;;;;;;;;;;;;;;;;5032992;28;20007;-69
2021/03/25 12:36:59;;;;;;;;;;;;;;;;;;5033326;28;19917;-69
2021/03/25 12:39:24;;;;;;;;;;;;;;;;;;5062788;28;19917;-70
2021/03/25 12:41:51;;;;;;;;;;;;;;;;;;5052914;28;19913;-70
2021/03/25 12:44:16;;;;;;;;;;;;;;;;;;5063036;28;19964;-69
2021/03/25 12:46:41;;;;;;;;;;;;;;;;;;5048321;28;19959;-68
2021/03/25 12:49:06;;;;;;;;;;;;;;;;;;5043127;28;19920;-69
2021/03/25 12:51:31;;;;;;;;;;;;;;;;;;5085007;28;19913;-69
2021/03/25 12:53:56;;;;;;;;;;;;;;;;;;5041027;28;19912;-70
2021/03/25 12:56:21;;;;;;;;;;;;;;;;;;5049231;28;19913;-69
2021/03/25 12:58:47;;;;;;;;;;;;;;;;;;5074526;28;19921;-68
2021/03/25 13:01:12;;;;;;;;;;;;;;;;;;5035393;28;19923;-68
2021/03/25 13:03:37;;;;;;;;;;;;;;;;;;5046885;28;20428;-69
2021/03/25 13:06:02;;;;;;;;;;;;;;;;;;5045861;28;19936;-65
2021/03/25 13:08:27;;;;;;;;;;;;;;;;;;5054010;28;19919;-69
2021/03/25 13:10:52;;;;;;;;;;;;;;;;;;5060716;28;19916;-68
2021/03/25 13:13:18;;;;;;;;;;;;;;;;;;5087142;28;19913;-69
2021/03/25 13:15:43;;;;;;;;;;;;;;;;;;5055623;28;20461;-68
2021/03/25 13:18:08;;;;;;;;;;;;;;;;;;5066478;28;19909;-69
2021/03/25 13:20:34;;;;;;;;;;;;;;;;;;5035404;28;19925;-68
2021/03/25 13:22:59;;;;;;;;;;;;;;;;;;5085946;28;19919;-69
2021/03/25 13:25:24;;;;;;;;;;;;;;;;;;5084135;28;19912;-69
2021/03/25 13:27:49;;;;;;;;;;;;;;;;;;5080667;28;19925;-69
2021/03/25 13:30:14;;;;;;;;;;;;;;;;;;5059783;28;19967;-70
2021/03/25 13:32:39;;;;;;;;;;;;;;;;;;5051359;28;19925;-72
2021/03/25 13:35:04;;;;;;;;;;;;;;;;;;5056233;28;19936;-69
2021/03/25 13:37:29;;;;;;;;;;;;;;;;;;5055128;28;20359;-69
2021/03/25 13:39:55;;;;;;;;;;;;;;;;;;5055982;28;20391;-70
2021/03/25 13:42:20;;;;;;;;;;;;;;;;;;5055832;28;19916;-69
2021/03/25 13:44:45;;;;;;;;;;;;;;;;;;5060241;28;20058;-68
2021/03/25 13:47:10;;;;;;;;;;;;;;;;;;5065207;28;20028;-69
2021/03/25 13:49:35;;;;;;;;;;;;;;;;;;5040149;28;19913;-69
2021/03/25 13:52:01;;;;;;;;;;;;;;;;;;5043153;28;19998;-69
2021/03/25 13:54:26;;;;;;;;;;;;;;;;;;5054110;28;20356;-69
2021/03/25 13:56:51;;;;;;;;;;;;;;;;;;5037329;28;19913;-70
2021/03/25 13:59:16;;;;;;;;;;;;;;;;;;5052084;28;20434;-70
2021/03/25 14:01:42;;;;;;;;;;;;;;;;;;5036250;28;20343;-69
2021/03/25 14:04:07;;;;;;;;;;;;;;;;;;5042495;28;20342;-70
2021/03/25 14:06:32;;;;;;;;;;;;;;;;;;5068084;28;20490;-70
2021/03/25 14:08:57;;;;;;;;;;;;;;;;;;5086877;28;19913;-69
2021/03/25 14:11:22;;;;;;;;;;;;;;;;;;5054181;28;19909;-70
2021/03/25 14:13:47;;;;;;;;;;;;;;;;;;5088172;28;19913;-68
2021/03/25 14:16:12;;;;;;;;;;;;;;;;;;5047258;28;20303;-69
2021/03/25 14:18:38;;;;;;;;;;;;;;;;;;5049518;28;19958;-68
2021/03/25 14:21:03;;;;;;;;;;;;;;;;;;5046608;28;20360;-69
2021/03/25 14:23:28;;;;;;;;;;;;;;;;;;5085826;28;19951;-69
2021/03/25 14:25:53;;;;;;;;;;;;;;;;;;5046746;28;19917;-69
2021/03/25 14:28:18;;;;;;;;;;;;;;;;;;5066434;28;19916;-69
2021/03/25 14:30:43;;;;;;;;;;;;;;;;;;5035861;28;20015;-69
2021/03/25 14:33:08;;;;;;;;;;;;;;;;;;5048828;28;19925;-69
2021/03/25 14:35:34;;;;;;;;;;;;;;;;;;5058913;28;20131;-69
2021/03/25 14:37:59;;;;;;;;;;;;;;;;;;5065914;28;19909;-69
2021/03/25 14:40:24;;;;;;;;;;;;;;;;;;5037838;28;19917;-69
2021/03/25 14:42:49;;;;;;;;;;;;;;;;;;5048321;28;19913;-68
2021/03/25 14:45:15;;;;;;;;;;;;;;;;;;5056703;28;19909;-69
2021/03/25 14:47:40;;;;;;;;;;;;;;;;;;5051591;28;19916;-69
2021/03/25 14:50:05;;;;;;;;;;;;;;;;;;5051979;28;19913;-69
2021/03/25 14:52:30;;;;;;;;;;;;;;;;;;5085244;28;19915;-69
2021/03/25 14:54:55;;;;;;;;;;;;;;;;;;5082144;28;20003;-69
2021/03/25 14:57:20;;;;;;;;;;;;;;;;;;5081765;28;20003;-68
2021/03/25 14:59:47;;;;;;;;;;;;;;;;;;5049012;28;19956;-70
2021/03/25 15:02:12;;;;;;;;;;;;;;;;;;5034224;28;19916;-70
2021/03/25 15:04:37;;;;;;;;;;;;;;;;;;5074975;28;19913;-70
2021/03/25 15:07:02;;;;;;;;;;;;;;;;;;5043743;28;19917;-72
2021/03/25 15:09:27;;;;;;;;;;;;;;;;;;5081467;28;19921;-69
2021/03/25 15:11:52;;;;;;;;;;;;;;;;;;5041359;28;19917;-70
2021/03/25 15:14:18;;;;;;;;;;;;;;;;;;5070047;28;20261;-69
2021/03/25 15:16:43;;;;;;;;;;;;;;;;;;5057937;28;20286;-69
2021/03/25 15:19:08;;;;;;;;;;;;;;;;;;5038182;28;19997;-70
2021/03/25 15:21:33;;;;;;;;;;;;;;;;;;5083536;28;20027;-71
2021/03/25 15:23:58;;;;;;;;;;;;;;;;;;5052719;28;20319;-69
2021/03/25 15:26:24;;;;;;;;;;;;;;;;;;5046460;28;19917;-70
2021/03/25 15:28:49;;;;;;;;;;;;;;;;;;5067474;28;19916;-71
2021/03/25 15:31:14;;;;;;;;;;;;;;;;;;5040888;28;19943;-68
2021/03/25 15:33:40;;;;;;;;;;;;;;;;;;5040390;28;20015;-70
2021/03/25 15:36:05;;;;;;;;;;;;;;;;;;5047834;28;19912;-70
2021/03/25 15:38:30;;;;;;;;;;;;;;;;;;5040425;28;19919;-70
2021/03/25 15:40:56;;;;;;;;;;;;;;;;;;5043836;28;19986;-71
2021/03/25 15:43:21;;;;;;;;;;;;;;;;;;5045486;28;19964;-71
2021/03/25 15:45:46;;;;;;;;;;;;;;;;;;5074986;28;20277;-71
2021/03/25 15:48:13;;;;;;;;;;;;;;;;;;5047953;28;19919;-72
2021/03/25 15:50:38;;;;;;;;;;;;;;;;;;5040291;28;19961;-72
2021/03/25 15:53:03;;;;;;;;;;;;;;;;;;5079587;28;19963;-72
2021/03/25 15:55:29;;;;;;;;;;;;;;;;;;5035098;28;19952;-71
2021/03/25 15:57:55;;;;;;;;;;;;;;;;;;5097111;28;19919;-71
2021/03/25 16:00:20;;;;;;;;;;;;;;;;;;5048348;28;19917;-70
2021/03/25 16:02:45;;;;;;;;;;;;;;;;;;5049749;28;19909;-69
2021/03/25 16:05:10;;;;;;;;;;;;;;;;;;5037107;28;19913;-69
2021/03/25 16:07:35;;;;;;;;;;;;;;;;;;5029686;28;20000;-68
2021/03/25 16:10:00;;;;;;;;;;;;;;;;;;5032903;28;19913;-71
2021/03/25 16:12:25;;;;;;;;;;;;;;;;;;5066848;28;19963;-72
2021/03/25 16:14:50;;;;;;;;;;;;;;;;;;5059146;28;19916;-71
2021/03/25 16:17:15;;;;;;;;;;;;;;;;;;5079808;28;20360;-70
2021/03/25 16:19:41;;;;;;;;;;;;;;;;;;5052525;28;20360;-72
2021/03/25 16:22:06;;;;;;;;;;;;;;;;;;5041353;28;19920;-73
2021/03/25 16:24:31;;;;;;;;;;;;;;;;;;5066053;28;19912;-73
2021/03/25 16:26:56;;;;;;;;;;;;;;;;;;5029997;28;19915;-71
2021/03/25 16:29:21;;;;;;;;;;;;;;;;;;5078976;28;20030;-72
2021/03/25 16:31:46;;;;;;;;;;;;;;;;;;5072161;28;19942;-71